sensor_id;sensor_type;location;lat;lon;timestamp;P1;durP1;ratioP1;P2;durP2;ratioP2
10031;SDS011;5056;44.272;19.892;2023-05-07T00:01:24;5.18;;;4.78;;
10031;SDS011;5056;44.272;19.892;2023-05-07T00:03:51;6.07;;;5.55;;
10031;SDS011;5056;44.272;19.892;2023-05-07T00:06:18;6.15;;;5.45;;
10031;SDS011;5056;44.272;19.892;2023-05-07T00:08:45;5.82;;;5.28;;
10031;SDS011;5056;44.272;19.892;2023-05-07T00:11:14;5.10;;;4.68;;
10031;SDS011;5056;44.272;19.892;2023-05-07T00:13:41;5.85;;;5.35;;
10031;SDS011;5056;44.272;19.892;2023-05-07T00:16:11;6.03;;;4.95;;
10031;SDS011;5056;44.272;19.892;2023-05-07T00:18:39;5.88;;;4.97;;
10031;SDS011;5056;44.272;19.892;2023-05-07T00:21:08;5.75;;;4.55;;
10031;SDS011;5056;44.272;19.892;2023-05-07T00:23:34;5.53;;;5.00;;
10031;SDS011;5056;44.272;19.892;2023-05-07T00:26:02;4.88;;;4.47;;
10031;SDS011;5056;44.272;19.892;2023-05-07T00:28:31;4.70;;;4.30;;
10031;SDS011;5056;44.272;19.892;2023-05-07T00:30:58;5.15;;;4.63;;
10031;SDS011;5056;44.272;19.892;2023-05-07T00:33:25;4.47;;;4.15;;
10031;SDS011;5056;44.272;19.892;2023-05-07T00:35:52;5.65;;;5.13;;
10031;SDS011;5056;44.272;19.892;2023-05-07T00:38:19;5.50;;;5.10;;
10031;SDS011;5056;44.272;19.892;2023-05-07T00:40:46;9.25;;;5.47;;
10031;SDS011;5056;44.272;19.892;2023-05-07T00:43:13;5.40;;;5.00;;
10031;SDS011;5056;44.272;19.892;2023-05-07T00:45:43;5.25;;;4.75;;
10031;SDS011;5056;44.272;19.892;2023-05-07T00:48:10;6.13;;;4.75;;
10031;SDS011;5056;44.272;19.892;2023-05-07T00:50:37;5.03;;;4.53;;
10031;SDS011;5056;44.272;19.892;2023-05-07T00:53:04;5.68;;;5.20;;
10031;SDS011;5056;44.272;19.892;2023-05-07T00:55:31;4.70;;;4.40;;
10031;SDS011;5056;44.272;19.892;2023-05-07T00:57:58;4.40;;;4.10;;
10031;SDS011;5056;44.272;19.892;2023-05-07T01:00:25;5.22;;;4.43;;
10031;SDS011;5056;44.272;19.892;2023-05-07T01:02:54;6.22;;;4.80;;
10031;SDS011;5056;44.272;19.892;2023-05-07T01:05:22;5.10;;;4.67;;
10031;SDS011;5056;44.272;19.892;2023-05-07T01:07:50;4.57;;;4.18;;
10031;SDS011;5056;44.272;19.892;2023-05-07T01:10:32;5.63;;;4.53;;
10031;SDS011;5056;44.272;19.892;2023-05-07T01:12:59;5.30;;;4.80;;
10031;SDS011;5056;44.272;19.892;2023-05-07T01:15:26;5.72;;;4.65;;
10031;SDS011;5056;44.272;19.892;2023-05-07T01:17:57;4.83;;;4.40;;
10031;SDS011;5056;44.272;19.892;2023-05-07T01:20:24;5.03;;;4.53;;
10031;SDS011;5056;44.272;19.892;2023-05-07T01:22:53;4.83;;;4.43;;
10031;SDS011;5056;44.272;19.892;2023-05-07T01:25:21;5.40;;;4.43;;
10031;SDS011;5056;44.272;19.892;2023-05-07T01:27:48;6.23;;;5.03;;
10031;SDS011;5056;44.272;19.892;2023-05-07T01:30:16;4.50;;;4.10;;
10031;SDS011;5056;44.272;19.892;2023-05-07T01:32:43;4.60;;;4.20;;
10031;SDS011;5056;44.272;19.892;2023-05-07T01:35:27;4.60;;;4.30;;
10031;SDS011;5056;44.272;19.892;2023-05-07T01:37:58;5.23;;;4.57;;
10031;SDS011;5056;44.272;19.892;2023-05-07T01:40:25;4.30;;;3.93;;
10031;SDS011;5056;44.272;19.892;2023-05-07T01:42:52;4.60;;;4.30;;
10031;SDS011;5056;44.272;19.892;2023-05-07T01:45:20;5.23;;;4.07;;
10031;SDS011;5056;44.272;19.892;2023-05-07T01:47:47;4.50;;;4.17;;
10031;SDS011;5056;44.272;19.892;2023-05-07T01:50:14;5.90;;;4.47;;
10031;SDS011;5056;44.272;19.892;2023-05-07T01:55:17;5.03;;;4.63;;
10031;SDS011;5056;44.272;19.892;2023-05-07T01:57:44;5.40;;;5.00;;
10031;SDS011;5056;44.272;19.892;2023-05-07T02:00:11;4.30;;;4.07;;
10031;SDS011;5056;44.272;19.892;2023-05-07T02:02:39;7.40;;;4.50;;
10031;SDS011;5056;44.272;19.892;2023-05-07T02:05:06;4.53;;;4.23;;
10031;SDS011;5056;44.272;19.892;2023-05-07T02:07:34;4.83;;;4.53;;
10031;SDS011;5056;44.272;19.892;2023-05-07T02:10:01;5.57;;;4.80;;
10031;SDS011;5056;44.272;19.892;2023-05-07T02:12:29;4.13;;;3.93;;
10031;SDS011;5056;44.272;19.892;2023-05-07T02:14:56;4.33;;;4.03;;
10031;SDS011;5056;44.272;19.892;2023-05-07T02:17:23;5.80;;;4.47;;
10031;SDS011;5056;44.272;19.892;2023-05-07T02:19:51;5.10;;;4.70;;
10031;SDS011;5056;44.272;19.892;2023-05-07T02:22:19;4.97;;;4.60;;
10031;SDS011;5056;44.272;19.892;2023-05-07T02:24:48;5.80;;;4.33;;
10031;SDS011;5056;44.272;19.892;2023-05-07T02:27:15;4.73;;;4.33;;
10031;SDS011;5056;44.272;19.892;2023-05-07T02:29:43;4.20;;;3.90;;
10031;SDS011;5056;44.272;19.892;2023-05-07T02:32:10;4.67;;;4.30;;
10031;SDS011;5056;44.272;19.892;2023-05-07T02:34:37;5.40;;;4.90;;
10031;SDS011;5056;44.272;19.892;2023-05-07T02:37:04;4.70;;;4.27;;
10031;SDS011;5056;44.272;19.892;2023-05-07T02:39:32;4.67;;;4.27;;
10031;SDS011;5056;44.272;19.892;2023-05-07T02:41:58;4.90;;;4.50;;
10031;SDS011;5056;44.272;19.892;2023-05-07T02:44:26;4.30;;;4.00;;
10031;SDS011;5056;44.272;19.892;2023-05-07T02:46:57;4.83;;;4.40;;
10031;SDS011;5056;44.272;19.892;2023-05-07T02:49:24;4.90;;;4.50;;
10031;SDS011;5056;44.272;19.892;2023-05-07T02:51:51;5.83;;;4.77;;
10031;SDS011;5056;44.272;19.892;2023-05-07T02:54:18;4.93;;;4.47;;
10031;SDS011;5056;44.272;19.892;2023-05-07T02:56:46;4.50;;;3.67;;
10031;SDS011;5056;44.272;19.892;2023-05-07T02:59:13;4.83;;;4.43;;
10031;SDS011;5056;44.272;19.892;2023-05-07T03:01:41;5.83;;;4.37;;
10031;SDS011;5056;44.272;19.892;2023-05-07T03:04:12;5.17;;;4.60;;
10031;SDS011;5056;44.272;19.892;2023-05-07T03:06:38;4.80;;;4.40;;
10031;SDS011;5056;44.272;19.892;2023-05-07T03:09:05;5.73;;;5.13;;
10031;SDS011;5056;44.272;19.892;2023-05-07T03:11:33;4.47;;;4.17;;
10031;SDS011;5056;44.272;19.892;2023-05-07T03:14:00;4.70;;;4.30;;
10031;SDS011;5056;44.272;19.892;2023-05-07T03:16:32;4.70;;;4.40;;
10031;SDS011;5056;44.272;19.892;2023-05-07T03:19:00;4.70;;;4.30;;
10031;SDS011;5056;44.272;19.892;2023-05-07T03:21:29;4.60;;;4.20;;
10031;SDS011;5056;44.272;19.892;2023-05-07T03:24:11;4.43;;;4.13;;
10031;SDS011;5056;44.272;19.892;2023-05-07T03:26:37;4.70;;;4.20;;
10031;SDS011;5056;44.272;19.892;2023-05-07T03:29:05;4.70;;;4.37;;
10031;SDS011;5056;44.272;19.892;2023-05-07T03:31:32;4.10;;;3.80;;
10031;SDS011;5056;44.272;19.892;2023-05-07T03:33:59;4.87;;;4.47;;
10031;SDS011;5056;44.272;19.892;2023-05-07T03:36:30;5.40;;;4.90;;
10031;SDS011;5056;44.272;19.892;2023-05-07T03:38:57;5.40;;;4.53;;
10031;SDS011;5056;44.272;19.892;2023-05-07T03:41:24;4.50;;;4.20;;
10031;SDS011;5056;44.272;19.892;2023-05-07T03:43:54;5.13;;;4.47;;
10031;SDS011;5056;44.272;19.892;2023-05-07T03:46:21;4.90;;;4.40;;
10031;SDS011;5056;44.272;19.892;2023-05-07T03:48:51;4.53;;;4.20;;
10031;SDS011;5056;44.272;19.892;2023-05-07T03:51:18;4.20;;;3.80;;
10031;SDS011;5056;44.272;19.892;2023-05-07T03:53:46;6.47;;;4.50;;
10031;SDS011;5056;44.272;19.892;2023-05-07T03:56:13;4.33;;;3.93;;
10031;SDS011;5056;44.272;19.892;2023-05-07T03:58:40;5.07;;;4.57;;
10031;SDS011;5056;44.272;19.892;2023-05-07T04:01:08;5.33;;;4.47;;
10031;SDS011;5056;44.272;19.892;2023-05-07T04:03:36;5.10;;;4.70;;
10031;SDS011;5056;44.272;19.892;2023-05-07T04:06:03;5.00;;;4.60;;
10031;SDS011;5056;44.272;19.892;2023-05-07T04:08:31;4.97;;;4.57;;
10031;SDS011;5056;44.272;19.892;2023-05-07T04:11:00;5.17;;;4.50;;
10031;SDS011;5056;44.272;19.892;2023-05-07T04:13:27;5.03;;;4.47;;
10031;SDS011;5056;44.272;19.892;2023-05-07T04:15:54;5.70;;;4.50;;
10031;SDS011;5056;44.272;19.892;2023-05-07T04:18:21;4.87;;;4.47;;
10031;SDS011;5056;44.272;19.892;2023-05-07T04:20:48;4.30;;;4.00;;
10031;SDS011;5056;44.272;19.892;2023-05-07T04:23:16;7.20;;;4.53;;
10031;SDS011;5056;44.272;19.892;2023-05-07T04:25:43;5.10;;;4.80;;
10031;SDS011;5056;44.272;19.892;2023-05-07T04:28:12;5.17;;;4.53;;
10031;SDS011;5056;44.272;19.892;2023-05-07T04:30:39;4.60;;;4.30;;
10031;SDS011;5056;44.272;19.892;2023-05-07T04:33:06;6.33;;;4.47;;
10031;SDS011;5056;44.272;19.892;2023-05-07T04:35:33;5.37;;;4.87;;
10031;SDS011;5056;44.272;19.892;2023-05-07T04:38:02;5.10;;;4.70;;
10031;SDS011;5056;44.272;19.892;2023-05-07T04:40:29;5.23;;;4.57;;
10031;SDS011;5056;44.272;19.892;2023-05-07T04:42:56;4.70;;;4.40;;
10031;SDS011;5056;44.272;19.892;2023-05-07T04:45:25;5.73;;;4.87;;
10031;SDS011;5056;44.272;19.892;2023-05-07T04:47:52;5.57;;;5.07;;
10031;SDS011;5056;44.272;19.892;2023-05-07T04:50:19;4.63;;;4.30;;
10031;SDS011;5056;44.272;19.892;2023-05-07T04:52:48;5.33;;;4.27;;
10031;SDS011;5056;44.272;19.892;2023-05-07T04:55:16;6.30;;;4.67;;
10031;SDS011;5056;44.272;19.892;2023-05-07T04:57:43;5.17;;;4.67;;
10031;SDS011;5056;44.272;19.892;2023-05-07T05:00:10;5.47;;;4.97;;
10031;SDS011;5056;44.272;19.892;2023-05-07T05:02:42;5.23;;;4.83;;
10031;SDS011;5056;44.272;19.892;2023-05-07T05:05:08;5.53;;;5.00;;
10031;SDS011;5056;44.272;19.892;2023-05-07T05:07:36;5.05;;;4.65;;
10031;SDS011;5056;44.272;19.892;2023-05-07T05:10:04;5.37;;;4.90;;
10031;SDS011;5056;44.272;19.892;2023-05-07T05:12:32;4.60;;;4.30;;
10031;SDS011;5056;44.272;19.892;2023-05-07T05:14:59;4.55;;;4.15;;
10031;SDS011;5056;44.272;19.892;2023-05-07T05:17:42;7.20;;;5.55;;
10031;SDS011;5056;44.272;19.892;2023-05-07T05:20:10;5.22;;;4.82;;
10031;SDS011;5056;44.272;19.892;2023-05-07T05:22:37;8.32;;;5.68;;
10031;SDS011;5056;44.272;19.892;2023-05-07T05:25:04;7.07;;;5.40;;
10031;SDS011;5056;44.272;19.892;2023-05-07T05:27:33;4.72;;;4.32;;
10031;SDS011;5056;44.272;19.892;2023-05-07T05:30:00;5.35;;;4.93;;
10031;SDS011;5056;44.272;19.892;2023-05-07T05:32:27;5.00;;;4.65;;
10031;SDS011;5056;44.272;19.892;2023-05-07T05:34:57;5.25;;;4.53;;
10031;SDS011;5056;44.272;19.892;2023-05-07T05:37:24;5.18;;;4.70;;
10031;SDS011;5056;44.272;19.892;2023-05-07T05:39:52;4.60;;;4.20;;
10031;SDS011;5056;44.272;19.892;2023-05-07T05:42:19;5.40;;;4.78;;
10031;SDS011;5056;44.272;19.892;2023-05-07T05:44:47;6.30;;;5.70;;
10031;SDS011;5056;44.272;19.892;2023-05-07T05:47:14;5.75;;;5.10;;
10031;SDS011;5056;44.272;19.892;2023-05-07T05:52:45;5.35;;;4.85;;
10031;SDS011;5056;44.272;19.892;2023-05-07T05:55:12;5.60;;;4.70;;
10031;SDS011;5056;44.272;19.892;2023-05-07T05:57:39;5.85;;;5.45;;
10031;SDS011;5056;44.272;19.892;2023-05-07T06:00:07;5.40;;;4.55;;
10031;SDS011;5056;44.272;19.892;2023-05-07T06:02:36;5.15;;;4.75;;
10031;SDS011;5056;44.272;19.892;2023-05-07T06:05:04;5.70;;;5.20;;
10031;SDS011;5056;44.272;19.892;2023-05-07T06:07:34;4.72;;;4.22;;
10031;SDS011;5056;44.272;19.892;2023-05-07T06:10:01;5.28;;;4.65;;
10031;SDS011;5056;44.272;19.892;2023-05-07T06:12:29;5.68;;;4.35;;
10031;SDS011;5056;44.272;19.892;2023-05-07T06:14:56;5.30;;;4.80;;
10031;SDS011;5056;44.272;19.892;2023-05-07T06:17:22;5.25;;;4.75;;
10031;SDS011;5056;44.272;19.892;2023-05-07T06:19:50;5.10;;;4.80;;
10031;SDS011;5056;44.272;19.892;2023-05-07T06:22:18;4.97;;;4.55;;
10031;SDS011;5056;44.272;19.892;2023-05-07T06:25:03;6.05;;;4.63;;
10031;SDS011;5056;44.272;19.892;2023-05-07T06:27:30;6.22;;;4.60;;
10031;SDS011;5056;44.272;19.892;2023-05-07T06:29:57;4.63;;;4.30;;
10031;SDS011;5056;44.272;19.892;2023-05-07T06:32:25;6.43;;;4.22;;
10031;SDS011;5056;44.272;19.892;2023-05-07T06:34:52;4.88;;;4.47;;
10031;SDS011;5056;44.272;19.892;2023-05-07T06:37:32;5.00;;;4.60;;
10031;SDS011;5056;44.272;19.892;2023-05-07T06:39:58;5.07;;;4.78;;
10031;SDS011;5056;44.272;19.892;2023-05-07T06:42:28;4.35;;;3.92;;
10031;SDS011;5056;44.272;19.892;2023-05-07T06:44:54;5.68;;;4.68;;
10031;SDS011;5056;44.272;19.892;2023-05-07T06:47:22;5.45;;;4.97;;
10031;SDS011;5056;44.272;19.892;2023-05-07T06:49:49;5.45;;;4.40;;
10031;SDS011;5056;44.272;19.892;2023-05-07T06:52:16;5.10;;;4.60;;
10031;SDS011;5056;44.272;19.892;2023-05-07T06:54:43;4.88;;;4.57;;
10031;SDS011;5056;44.272;19.892;2023-05-07T06:57:10;9.60;;;4.95;;
10031;SDS011;5056;44.272;19.892;2023-05-07T06:59:39;6.07;;;4.68;;
10031;SDS011;5056;44.272;19.892;2023-05-07T07:02:06;7.05;;;4.57;;
10031;SDS011;5056;44.272;19.892;2023-05-07T07:04:33;4.43;;;4.03;;
10031;SDS011;5056;44.272;19.892;2023-05-07T07:07:01;4.93;;;4.53;;
10031;SDS011;5056;44.272;19.892;2023-05-07T07:09:29;6.90;;;4.45;;
10031;SDS011;5056;44.272;19.892;2023-05-07T07:11:59;4.63;;;4.22;;
10031;SDS011;5056;44.272;19.892;2023-05-07T07:14:26;5.25;;;4.13;;
10031;SDS011;5056;44.272;19.892;2023-05-07T07:16:54;5.25;;;4.50;;
10031;SDS011;5056;44.272;19.892;2023-05-07T07:19:27;4.80;;;4.40;;
10031;SDS011;5056;44.272;19.892;2023-05-07T07:21:55;5.47;;;4.13;;
10031;SDS011;5056;44.272;19.892;2023-05-07T07:24:27;5.15;;;4.65;;
10031;SDS011;5056;44.272;19.892;2023-05-07T07:27:03;5.22;;;4.72;;
10031;SDS011;5056;44.272;19.892;2023-05-07T07:29:30;5.80;;;4.82;;
10031;SDS011;5056;44.272;19.892;2023-05-07T07:32:06;7.10;;;4.93;;
10031;SDS011;5056;44.272;19.892;2023-05-07T07:34:34;8.93;;;4.80;;
10031;SDS011;5056;44.272;19.892;2023-05-07T07:37:01;4.93;;;4.43;;
10031;SDS011;5056;44.272;19.892;2023-05-07T07:39:31;4.72;;;4.30;;
10031;SDS011;5056;44.272;19.892;2023-05-07T07:42:02;5.85;;;4.82;;
10031;SDS011;5056;44.272;19.892;2023-05-07T07:44:30;5.00;;;4.28;;
10031;SDS011;5056;44.272;19.892;2023-05-07T07:46:57;6.07;;;4.35;;
10031;SDS011;5056;44.272;19.892;2023-05-07T07:49:28;8.15;;;4.85;;
10031;SDS011;5056;44.272;19.892;2023-05-07T07:51:54;6.22;;;5.32;;
10031;SDS011;5056;44.272;19.892;2023-05-07T07:54:24;5.90;;;5.35;;
10031;SDS011;5056;44.272;19.892;2023-05-07T07:56:51;7.30;;;6.80;;
10031;SDS011;5056;44.272;19.892;2023-05-07T07:59:21;7.63;;;6.85;;
10031;SDS011;5056;44.272;19.892;2023-05-07T08:01:48;7.57;;;6.47;;
10031;SDS011;5056;44.272;19.892;2023-05-07T08:04:17;9.80;;;6.47;;
10031;SDS011;5056;44.272;19.892;2023-05-07T08:06:45;7.38;;;6.38;;
10031;SDS011;5056;44.272;19.892;2023-05-07T08:09:12;5.90;;;5.20;;
10031;SDS011;5056;44.272;19.892;2023-05-07T08:11:39;4.95;;;4.55;;
10031;SDS011;5056;44.272;19.892;2023-05-07T08:14:06;6.05;;;5.07;;
10031;SDS011;5056;44.272;19.892;2023-05-07T08:16:33;5.88;;;5.32;;
10031;SDS011;5056;44.272;19.892;2023-05-07T08:19:02;5.25;;;4.85;;
10031;SDS011;5056;44.272;19.892;2023-05-07T08:21:30;5.28;;;4.78;;
10031;SDS011;5056;44.272;19.892;2023-05-07T08:23:59;5.30;;;4.90;;
10031;SDS011;5056;44.272;19.892;2023-05-07T08:26:25;6.28;;;5.68;;
10031;SDS011;5056;44.272;19.892;2023-05-07T08:28:52;6.38;;;5.78;;
10031;SDS011;5056;44.272;19.892;2023-05-07T08:31:20;6.28;;;5.68;;
10031;SDS011;5056;44.272;19.892;2023-05-07T08:33:47;7.00;;;6.32;;
10031;SDS011;5056;44.272;19.892;2023-05-07T08:36:17;6.40;;;5.80;;
10031;SDS011;5056;44.272;19.892;2023-05-07T08:38:46;5.88;;;5.38;;
10031;SDS011;5056;44.272;19.892;2023-05-07T08:41:17;5.97;;;5.22;;
10031;SDS011;5056;44.272;19.892;2023-05-07T08:43:46;5.20;;;4.82;;
10031;SDS011;5056;44.272;19.892;2023-05-07T08:46:16;5.57;;;5.03;;
10031;SDS011;5056;44.272;19.892;2023-05-07T08:48:45;5.20;;;4.90;;
10031;SDS011;5056;44.272;19.892;2023-05-07T08:51:15;5.30;;;4.80;;
10031;SDS011;5056;44.272;19.892;2023-05-07T08:53:44;5.07;;;4.65;;
10031;SDS011;5056;44.272;19.892;2023-05-07T08:56:13;5.20;;;4.72;;
10031;SDS011;5056;44.272;19.892;2023-05-07T08:58:43;5.03;;;4.50;;
10031;SDS011;5056;44.272;19.892;2023-05-07T09:01:12;3.95;;;3.65;;
10031;SDS011;5056;44.272;19.892;2023-05-07T09:03:40;4.80;;;3.92;;
10031;SDS011;5056;44.272;19.892;2023-05-07T09:06:08;4.57;;;4.18;;
10031;SDS011;5056;44.272;19.892;2023-05-07T09:08:35;3.65;;;3.35;;
10031;SDS011;5056;44.272;19.892;2023-05-07T09:11:03;4.72;;;3.78;;
10031;SDS011;5056;44.272;19.892;2023-05-07T09:13:31;4.30;;;3.63;;
10031;SDS011;5056;44.272;19.892;2023-05-07T09:16:01;4.47;;;4.10;;
10031;SDS011;5056;44.272;19.892;2023-05-07T09:18:40;4.25;;;3.95;;
10031;SDS011;5056;44.272;19.892;2023-05-07T09:21:09;3.53;;;3.22;;
10031;SDS011;5056;44.272;19.892;2023-05-07T09:23:37;3.50;;;3.30;;
10031;SDS011;5056;44.272;19.892;2023-05-07T09:26:04;3.95;;;3.70;;
10031;SDS011;5056;44.272;19.892;2023-05-07T09:28:37;3.10;;;2.90;;
10031;SDS011;5056;44.272;19.892;2023-05-07T09:31:11;4.15;;;3.80;;
10031;SDS011;5056;44.272;19.892;2023-05-07T09:33:39;3.10;;;3.00;;
10031;SDS011;5056;44.272;19.892;2023-05-07T09:36:10;3.67;;;3.40;;
10031;SDS011;5056;44.272;19.892;2023-05-07T09:38:37;3.50;;;3.30;;
10031;SDS011;5056;44.272;19.892;2023-05-07T09:41:06;3.33;;;3.03;;
10031;SDS011;5056;44.272;19.892;2023-05-07T09:43:36;3.20;;;3.00;;
10031;SDS011;5056;44.272;19.892;2023-05-07T09:46:09;3.55;;;3.25;;
10031;SDS011;5056;44.272;19.892;2023-05-07T09:48:40;3.70;;;3.40;;
10031;SDS011;5056;44.272;19.892;2023-05-07T09:51:14;3.25;;;3.05;;
10031;SDS011;5056;44.272;19.892;2023-05-07T09:53:43;3.40;;;2.90;;
10031;SDS011;5056;44.272;19.892;2023-05-07T09:56:18;3.42;;;3.13;;
10031;SDS011;5056;44.272;19.892;2023-05-07T09:58:46;3.85;;;3.55;;
10031;SDS011;5056;44.272;19.892;2023-05-07T10:01:15;4.35;;;3.90;;
10031;SDS011;5056;44.272;19.892;2023-05-07T10:03:44;3.60;;;3.33;;
10031;SDS011;5056;44.272;19.892;2023-05-07T10:06:18;3.97;;;3.67;;
10031;SDS011;5056;44.272;19.892;2023-05-07T10:08:46;4.10;;;3.70;;
10031;SDS011;5056;44.272;19.892;2023-05-07T10:11:13;3.55;;;2.95;;
10031;SDS011;5056;44.272;19.892;2023-05-07T10:13:41;5.45;;;2.97;;
10031;SDS011;5056;44.272;19.892;2023-05-07T10:16:11;4.00;;;3.53;;
10031;SDS011;5056;44.272;19.892;2023-05-07T10:18:40;3.33;;;3.10;;
10031;SDS011;5056;44.272;19.892;2023-05-07T10:21:08;3.97;;;3.67;;
10031;SDS011;5056;44.272;19.892;2023-05-07T10:23:43;4.40;;;3.30;;
10031;SDS011;5056;44.272;19.892;2023-05-07T10:26:12;3.15;;;2.95;;
10031;SDS011;5056;44.272;19.892;2023-05-07T10:28:41;2.88;;;2.70;;
10031;SDS011;5056;44.272;19.892;2023-05-07T10:34:01;4.20;;;3.25;;
10031;SDS011;5056;44.272;19.892;2023-05-07T10:36:36;3.38;;;3.17;;
10031;SDS011;5056;44.272;19.892;2023-05-07T10:39:04;3.10;;;2.90;;
10031;SDS011;5056;44.272;19.892;2023-05-07T10:41:32;3.50;;;3.20;;
10031;SDS011;5056;44.272;19.892;2023-05-07T10:43:59;3.03;;;2.83;;
10031;SDS011;5056;44.272;19.892;2023-05-07T10:46:27;3.28;;;2.80;;
10031;SDS011;5056;44.272;19.892;2023-05-07T10:49:08;3.33;;;3.03;;
10031;SDS011;5056;44.272;19.892;2023-05-07T10:51:38;2.95;;;2.85;;
10031;SDS011;5056;44.272;19.892;2023-05-07T10:54:19;3.25;;;3.00;;
10031;SDS011;5056;44.272;19.892;2023-05-07T10:56:49;3.40;;;3.20;;
10031;SDS011;5056;44.272;19.892;2023-05-07T10:59:34;5.00;;;3.28;;
10031;SDS011;5056;44.272;19.892;2023-05-07T11:02:06;3.20;;;2.90;;
10031;SDS011;5056;44.272;19.892;2023-05-07T11:04:38;3.38;;;3.17;;
10031;SDS011;5056;44.272;19.892;2023-05-07T11:07:14;3.08;;;2.67;;
10031;SDS011;5056;44.272;19.892;2023-05-07T11:09:54;3.17;;;2.88;;
10031;SDS011;5056;44.272;19.892;2023-05-07T11:15:37;3.13;;;2.92;;
10031;SDS011;5056;44.272;19.892;2023-05-07T11:18:07;3.38;;;3.00;;
10031;SDS011;5056;44.272;19.892;2023-05-07T11:20:49;2.63;;;2.42;;
10031;SDS011;5056;44.272;19.892;2023-05-07T11:26:24;2.90;;;2.70;;
10031;SDS011;5056;44.272;19.892;2023-05-07T11:28:54;3.65;;;2.97;;
10031;SDS011;5056;44.272;19.892;2023-05-07T11:31:24;3.08;;;2.80;;
10031;SDS011;5056;44.272;19.892;2023-05-07T11:33:52;3.17;;;2.60;;
10031;SDS011;5056;44.272;19.892;2023-05-07T11:36:25;2.70;;;2.60;;
10031;SDS011;5056;44.272;19.892;2023-05-07T11:38:56;4.28;;;2.70;;
10031;SDS011;5056;44.272;19.892;2023-05-07T11:41:34;3.78;;;3.40;;
10031;SDS011;5056;44.272;19.892;2023-05-07T11:44:04;2.70;;;2.50;;
10031;SDS011;5056;44.272;19.892;2023-05-07T11:46:30;2.90;;;2.72;;
10031;SDS011;5056;44.272;19.892;2023-05-07T11:48:59;3.00;;;2.80;;
10031;SDS011;5056;44.272;19.892;2023-05-07T11:51:29;3.40;;;2.70;;
10031;SDS011;5056;44.272;19.892;2023-05-07T11:53:56;3.10;;;2.90;;
10031;SDS011;5056;44.272;19.892;2023-05-07T11:56:23;4.32;;;3.08;;
10031;SDS011;5056;44.272;19.892;2023-05-07T11:58:51;3.20;;;3.00;;
10031;SDS011;5056;44.272;19.892;2023-05-07T12:01:18;3.33;;;3.03;;
10031;SDS011;5056;44.272;19.892;2023-05-07T12:03:47;3.22;;;2.95;;
10031;SDS011;5056;44.272;19.892;2023-05-07T12:06:15;2.78;;;2.50;;
10031;SDS011;5056;44.272;19.892;2023-05-07T12:08:48;2.95;;;2.75;;
10031;SDS011;5056;44.272;19.892;2023-05-07T12:11:15;2.60;;;2.50;;
10031;SDS011;5056;44.272;19.892;2023-05-07T12:13:45;2.65;;;2.53;;
10031;SDS011;5056;44.272;19.892;2023-05-07T12:16:12;3.45;;;3.15;;
10031;SDS011;5056;44.272;19.892;2023-05-07T12:18:40;2.85;;;2.55;;
10031;SDS011;5056;44.272;19.892;2023-05-07T12:21:11;2.70;;;2.60;;
10031;SDS011;5056;44.272;19.892;2023-05-07T12:23:38;5.95;;;2.38;;
10031;SDS011;5056;44.272;19.892;2023-05-07T12:26:09;2.70;;;2.50;;
10031;SDS011;5056;44.272;19.892;2023-05-07T12:28:37;3.45;;;3.17;;
10031;SDS011;5056;44.272;19.892;2023-05-07T12:31:04;2.70;;;2.60;;
10031;SDS011;5056;44.272;19.892;2023-05-07T12:33:35;2.45;;;2.35;;
10031;SDS011;5056;44.272;19.892;2023-05-07T12:36:05;2.97;;;2.70;;
10031;SDS011;5056;44.272;19.892;2023-05-07T12:38:35;2.90;;;2.70;;
10031;SDS011;5056;44.272;19.892;2023-05-07T12:41:04;4.28;;;2.88;;
10031;SDS011;5056;44.272;19.892;2023-05-07T12:43:39;2.70;;;2.60;;
10031;SDS011;5056;44.272;19.892;2023-05-07T12:46:06;3.13;;;2.92;;
10031;SDS011;5056;44.272;19.892;2023-05-07T12:48:35;3.10;;;2.90;;
10031;SDS011;5056;44.272;19.892;2023-05-07T12:51:08;2.92;;;2.72;;
10031;SDS011;5056;44.272;19.892;2023-05-07T12:53:39;3.30;;;2.65;;
10031;SDS011;5056;44.272;19.892;2023-05-07T12:56:07;4.10;;;2.67;;
10031;SDS011;5056;44.272;19.892;2023-05-07T12:58:36;2.65;;;2.45;;
10031;SDS011;5056;44.272;19.892;2023-05-07T13:01:04;2.90;;;2.70;;
10031;SDS011;5056;44.272;19.892;2023-05-07T13:03:32;2.63;;;2.53;;
10031;SDS011;5056;44.272;19.892;2023-05-07T13:06:02;2.95;;;2.67;;
10031;SDS011;5056;44.272;19.892;2023-05-07T13:08:30;2.50;;;2.40;;
10031;SDS011;5056;44.272;19.892;2023-05-07T13:10:58;2.92;;;2.40;;
10031;SDS011;5056;44.272;19.892;2023-05-07T13:13:29;2.88;;;2.70;;
10031;SDS011;5056;44.272;19.892;2023-05-07T13:15:57;2.50;;;2.40;;
10031;SDS011;5056;44.272;19.892;2023-05-07T13:18:25;2.63;;;2.40;;
10031;SDS011;5056;44.272;19.892;2023-05-07T13:20:52;2.58;;;2.42;;
10031;SDS011;5056;44.272;19.892;2023-05-07T13:23:20;2.83;;;2.67;;
10031;SDS011;5056;44.272;19.892;2023-05-07T13:25:47;2.45;;;2.35;;
10031;SDS011;5056;44.272;19.892;2023-05-07T13:28:14;4.55;;;3.40;;
10031;SDS011;5056;44.272;19.892;2023-05-07T13:30:41;2.63;;;2.53;;
10031;SDS011;5056;44.272;19.892;2023-05-07T13:33:10;2.28;;;2.17;;
10031;SDS011;5056;44.272;19.892;2023-05-07T13:35:37;3.30;;;3.10;;
10031;SDS011;5056;44.272;19.892;2023-05-07T13:38:05;4.72;;;3.30;;
10031;SDS011;5056;44.272;19.892;2023-05-07T13:40:33;3.50;;;2.90;;
10031;SDS011;5056;44.272;19.892;2023-05-07T13:43:01;3.97;;;2.83;;
10031;SDS011;5056;44.272;19.892;2023-05-07T13:45:29;3.05;;;2.85;;
10031;SDS011;5056;44.272;19.892;2023-05-07T13:47:56;2.42;;;2.33;;
10031;SDS011;5056;44.272;19.892;2023-05-07T13:50:26;2.70;;;2.50;;
10031;SDS011;5056;44.272;19.892;2023-05-07T13:52:55;2.78;;;2.58;;
10031;SDS011;5056;44.272;19.892;2023-05-07T13:55:23;2.72;;;2.60;;
10031;SDS011;5056;44.272;19.892;2023-05-07T13:57:54;2.85;;;2.60;;
10031;SDS011;5056;44.272;19.892;2023-05-07T14:00:25;2.97;;;2.78;;
10031;SDS011;5056;44.272;19.892;2023-05-07T14:02:52;3.67;;;3.10;;
10031;SDS011;5056;44.272;19.892;2023-05-07T14:05:19;2.75;;;2.55;;
10031;SDS011;5056;44.272;19.892;2023-05-07T14:07:49;3.00;;;2.72;;
10031;SDS011;5056;44.272;19.892;2023-05-07T14:10:17;2.72;;;2.60;;
10031;SDS011;5056;44.272;19.892;2023-05-07T14:12:45;3.05;;;2.85;;
10031;SDS011;5056;44.272;19.892;2023-05-07T14:15:13;3.10;;;2.90;;
10031;SDS011;5056;44.272;19.892;2023-05-07T14:17:41;2.67;;;2.53;;
10031;SDS011;5056;44.272;19.892;2023-05-07T14:20:09;2.50;;;2.40;;
10031;SDS011;5056;44.272;19.892;2023-05-07T14:22:37;2.95;;;2.65;;
10031;SDS011;5056;44.272;19.892;2023-05-07T14:25:07;3.03;;;2.83;;
10031;SDS011;5056;44.272;19.892;2023-05-07T14:27:35;3.05;;;2.85;;
10031;SDS011;5056;44.272;19.892;2023-05-07T14:30:02;4.47;;;3.35;;
10031;SDS011;5056;44.272;19.892;2023-05-07T14:32:32;3.80;;;3.22;;
10031;SDS011;5056;44.272;19.892;2023-05-07T14:35:00;3.50;;;3.20;;
10031;SDS011;5056;44.272;19.892;2023-05-07T14:37:28;2.88;;;2.67;;
10031;SDS011;5056;44.272;19.892;2023-05-07T14:39:55;3.20;;;3.00;;
10031;SDS011;5056;44.272;19.892;2023-05-07T14:42:24;3.38;;;3.10;;
10031;SDS011;5056;44.272;19.892;2023-05-07T14:44:51;3.05;;;2.83;;
10031;SDS011;5056;44.272;19.892;2023-05-07T14:47:19;3.05;;;2.63;;
10031;SDS011;5056;44.272;19.892;2023-05-07T14:49:48;2.80;;;2.70;;
10031;SDS011;5056;44.272;19.892;2023-05-07T14:52:16;2.70;;;2.60;;
10031;SDS011;5056;44.272;19.892;2023-05-07T14:54:43;2.53;;;2.42;;
10031;SDS011;5056;44.272;19.892;2023-05-07T14:57:10;2.75;;;2.65;;
10031;SDS011;5056;44.272;19.892;2023-05-07T14:59:41;3.55;;;3.13;;
10031;SDS011;5056;44.272;19.892;2023-05-07T15:02:08;2.80;;;2.63;;
10031;SDS011;5056;44.272;19.892;2023-05-07T15:04:36;2.70;;;2.50;;
10031;SDS011;5056;44.272;19.892;2023-05-07T15:07:05;3.00;;;2.80;;
10031;SDS011;5056;44.272;19.892;2023-05-07T15:09:32;2.80;;;2.70;;
10031;SDS011;5056;44.272;19.892;2023-05-07T15:12:00;5.25;;;3.20;;